Time;durP1;ratioP1;P1;durP2;ratioP2;P2;SDS_P1;SDS_P2;PMS_P1;PMS_P2;Temp;Humidity;BMP_temperature;BMP_pressure;BME280_temperature;BME280_humidity;BME280_pressure;Samples;Min_cycle;Max_cycle;Signal;HPM_P1;HPM_P2
2021/05/23 00:03:46;;;;;;;1.67;0.80;;;;;;;11.84;71.53;99962.09;5067004;57;1137015;-77
2021/05/23 00:08:52;;;;;;;5.27;1.33;;;;;;;11.80;71.55;99962.02;5066638;57;1137036;-74
2021/05/23 00:13:59;;;;;;;1.73;1.00;;;;;;;11.68;71.52;99957.33;5066802;57;1136835;-77
2021/05/23 00:19:05;;;;;;;1.53;0.73;;;;;;;11.68;71.66;99959.98;5066582;57;1136796;-75
2021/05/23 00:24:11;;;;;;;1.20;1.10;;;;;;;11.65;72.06;99962.90;5066712;57;1136853;-75
2021/05/23 00:29:17;;;;;;;2.45;1.30;;;;;;;11.61;72.24;99962.33;5070213;57;1146495;-76
2021/05/23 00:34:24;;;;;;;2.42;1.20;;;;;;;11.62;72.50;99966.66;5051386;57;1137118;-74
2021/05/23 00:39:30;;;;;;;1.15;0.95;;;;;;;11.61;72.52;99960.17;5067104;57;1137020;-72
2021/05/23 00:44:39;;;;;;;1.33;0.93;;;;;;;11.62;72.39;99954.73;5066890;57;1136815;-75
2021/05/23 00:49:43;;;;;;;1.23;0.77;;;;;;;11.57;72.58;99958.31;5066549;57;1137085;-77
2021/05/23 00:54:49;;;;;;;4.43;1.70;;;;;;;11.54;72.80;99963.05;5066798;57;1137045;-74
2021/05/23 00:59:56;;;;;;;3.00;1.33;;;;;;;11.50;72.86;99962.96;5066545;57;1137035;-71
2021/05/23 01:05:02;;;;;;;1.60;1.17;;;;;;;11.46;73.05;99967.69;5066672;57;1136966;-73
2021/05/23 01:10:18;;;;;;;2.00;1.30;;;;;;;11.45;73.70;99972.67;5066532;57;1137125;-77
2021/05/23 01:15:42;;;;;;;2.10;0.82;;;;;;;11.42;73.39;99964.99;5032009;57;1136828;-74
2021/05/23 01:21:02;;;;;;;4.03;0.95;;;;;;;11.40;73.93;99966.94;5066572;57;1136809;-77
2021/05/23 01:26:10;;;;;;;3.50;0.80;;;;;;;11.35;74.10;99967.83;5066426;57;1137224;-77
2021/05/23 01:31:20;;;;;;;3.50;0.90;;;;;;;11.34;74.41;99962.67;5066669;57;1136782;-77
2021/05/23 01:36:33;;;;;;;3.67;0.90;;;;;;;11.28;74.60;99959.61;5067744;57;1136877;-75
2021/05/23 01:41:42;;;;;;;1.80;0.63;;;;;;;11.27;74.56;99957.94;5084296;57;1136368;-76
2021/05/23 01:46:49;;;;;;;4.70;0.90;;;;;;;11.25;74.60;99957.23;5083953;57;1136323;-78
2021/05/23 01:51:55;;;;;;;1.70;0.73;;;;;;;11.20;74.58;99965.22;5083982;57;1136453;-74
2021/05/23 01:57:01;;;;;;;1.13;0.90;;;;;;;11.18;74.92;99964.03;5084147;57;1137121;-71
2021/05/23 02:02:07;;;;;;;3.43;0.50;;;;;;;11.12;74.73;99970.37;5084110;57;1136680;-73
2021/05/23 02:07:13;;;;;;;1.53;0.97;;;;;;;11.13;74.88;99979.99;5083997;57;1136527;-74
2021/05/23 02:12:19;;;;;;;2.70;0.72;;;;;;;11.05;75.15;99995.20;5090243;57;1143069;-74
2021/05/23 02:17:25;;;;;;;5.50;1.27;;;;;;;11.00;76.27;100007.99;5084109;57;1136930;-77
2021/05/23 02:22:31;;;;;;;1.77;1.27;;;;;;;10.93;75.51;100008.20;5083653;57;1148008;-76
2021/05/23 02:27:45;;;;;;;0.78;0.75;;;;;;;10.85;75.42;100012.81;5083764;57;1138984;-75
2021/05/23 02:32:52;;;;;;;1.70;0.83;;;;;;;10.80;75.89;100017.69;5083623;57;1138334;-76
2021/05/23 02:37:59;;;;;;;1.23;0.60;;;;;;;10.72;75.93;100020.14;5083701;57;1138522;-76
2021/05/23 02:43:08;;;;;;;1.80;0.83;;;;;;;10.66;76.27;100018.04;5083622;57;1138433;-75
2021/05/23 02:48:16;;;;;;;3.33;1.10;;;;;;;10.64;75.96;100031.03;5083746;57;1139059;-78
2021/05/23 02:53:23;;;;;;;1.53;0.60;;;;;;;10.56;76.27;100036.96;5061792;57;1256808;-75
2021/05/23 02:58:29;;;;;;;1.30;0.60;;;;;;;10.55;76.63;100044.05;5083954;57;1138482;-76
2021/05/23 03:03:35;;;;;;;3.40;1.00;;;;;;;10.53;76.58;100045.18;5083735;57;1148064;-75
2021/05/23 03:08:41;;;;;;;1.13;0.77;;;;;;;10.52;76.44;100046.15;5083661;57;1138525;-75
2021/05/23 03:13:47;;;;;;;0.40;0.40;;;;;;;10.50;76.61;100046.76;5083639;57;1138432;-72
2021/05/23 03:18:54;;;;;;;5.03;0.70;;;;;;;10.50;77.17;100044.95;5084056;57;1139341;-72
2021/05/23 03:24:00;;;;;;;2.80;0.97;;;;;;;10.52;76.91;100050.95;5084161;57;1139143;-77
2021/05/23 03:29:06;;;;;;;2.90;1.00;;;;;;;10.53;76.90;100057.08;5084086;57;1139208;-75
2021/05/23 03:34:12;;;;;;;3.03;1.13;;;;;;;10.56;76.88;100051.51;5084277;57;1138907;-74
2021/05/23 03:39:18;;;;;;;1.50;0.97;;;;;;;10.58;76.97;100054.37;5084263;57;1138902;-76
2021/05/23 03:44:24;;;;;;;2.52;0.90;;;;;;;10.57;77.19;100055.83;5084493;57;1139150;-76
2021/05/23 03:49:29;;;;;;;2.15;1.15;;;;;;;10.58;77.37;100059.67;5084256;57;1138903;-74
2021/05/23 03:54:35;;;;;;;2.70;0.95;;;;;;;10.56;77.33;100061.59;5084544;57;1139388;-77
2021/05/23 03:59:42;;;;;;;3.57;1.10;;;;;;;10.59;77.55;100067.12;5084196;57;1139614;-76
2021/05/23 04:04:49;;;;;;;3.30;1.40;;;;;;;10.57;77.76;100076.98;5084167;57;1139071;-76
2021/05/23 04:09:57;;;;;;;1.37;1.07;;;;;;;10.56;77.54;100079.27;5084376;57;1139052;-76
2021/05/23 04:15:05;;;;;;;3.93;1.47;;;;;;;10.58;77.65;100086.11;5084074;57;1138900;-74
2021/05/23 04:20:15;;;;;;;1.80;1.70;;;;;;;10.60;78.16;100089.95;5084260;57;1138934;-77
2021/05/23 04:25:24;;;;;;;3.35;1.37;;;;;;;10.70;78.21;100090.84;5098887;57;1138931;-75
2021/05/23 04:30:31;;;;;;;1.32;1.22;;;;;;;10.79;78.30;100094.05;5079129;57;1138892;-73
2021/05/23 04:35:38;;;;;;;2.37;1.15;;;;;;;10.87;78.61;100095.53;5084042;57;1138937;-75
2021/05/23 04:40:43;;;;;;;4.57;1.20;;;;;;;11.03;78.39;100102.16;5083966;57;1138953;-74
2021/05/23 04:45:49;;;;;;;1.90;1.10;;;;;;;11.06;78.24;100106.70;5067900;57;1139379;-75
2021/05/23 04:50:55;;;;;;;7.30;1.10;;;;;;;11.05;78.30;100113.45;5066585;57;1138890;-75
2021/05/23 04:56:01;;;;;;;1.33;0.87;;;;;;;11.07;78.24;100116.81;5066323;57;1139183;-77
2021/05/23 05:01:06;;;;;;;4.87;1.40;;;;;;;11.05;78.46;100119.58;5066447;57;1139121;-75
2021/05/23 05:06:12;;;;;;;2.70;1.10;;;;;;;11.08;78.44;100123.30;5066464;57;1139018;-77
2021/05/23 05:11:18;;;;;;;1.73;0.90;;;;;;;11.17;78.57;100121.17;5066588;57;1139130;-71
2021/05/23 05:16:24;;;;;;;1.73;0.87;;;;;;;11.29;78.48;100123.27;5046966;57;1138889;-76
2021/05/23 05:21:29;;;;;;;0.85;0.85;;;;;;;11.38;78.42;100136.17;5066547;57;1138897;-71
2021/05/23 05:26:36;;;;;;;3.30;1.20;;;;;;;11.42;78.03;100140.24;5066483;57;1138900;-78
2021/05/23 05:31:41;;;;;;;1.37;0.80;;;;;;;11.38;77.77;100146.77;5066537;57;1139244;-75
2021/05/23 05:36:47;;;;;;;5.50;1.40;;;;;;;11.39;77.85;100160.36;5066269;57;1138411;-72
2021/05/23 05:41:53;;;;;;;10.03;0.90;;;;;;;11.45;77.91;100161.16;5066357;57;1138509;-74
2021/05/23 05:46:59;;;;;;;4.00;1.20;;;;;;;11.42;77.77;100171.53;5080345;57;1140636;-75
2021/05/23 05:52:07;;;;;;;1.33;0.97;;;;;;;11.43;77.67;100184.28;5083928;57;1138777;-74
2021/05/23 05:57:13;;;;;;;2.30;1.07;;;;;;;11.47;77.95;100195.78;5083831;57;1139075;-77
2021/05/23 06:02:19;;;;;;;2.57;1.30;;;;;;;11.58;78.35;100194.88;5083812;57;1138739;-74
2021/05/23 06:07:26;;;;;;;1.83;0.90;;;;;;;11.73;78.06;100200.64;5084222;57;1138610;-72
2021/05/23 06:12:32;;;;;;;3.60;0.93;;;;;;;11.87;77.58;100225.00;5084112;57;1139221;-74
2021/05/23 06:17:38;;;;;;;3.85;1.77;;;;;;;12.00;76.97;100229.20;5083824;57;1138512;-76
2021/05/23 06:22:45;;;;;;;1.93;0.80;;;;;;;12.10;76.77;100236.69;5083999;57;1138613;-78
2021/05/23 06:27:50;;;;;;;3.10;1.20;;;;;;;12.15;76.23;100242.44;5083832;57;1138513;-74
2021/05/23 06:32:56;;;;;;;1.93;1.20;;;;;;;12.14;75.62;100225.69;5083844;57;1138435;-77
2021/05/23 06:38:02;;;;;;;1.43;0.97;;;;;;;12.13;76.14;100235.94;5083592;57;1138501;-78
2021/05/23 06:43:08;;;;;;;1.13;0.90;;;;;;;12.22;75.28;100249.70;5083793;57;1139085;-74
2021/05/23 06:48:15;;;;;;;6.60;1.10;;;;;;;12.25;74.19;100244.13;5083839;57;1138459;-76
2021/05/23 06:53:21;;;;;;;0.90;0.90;;;;;;;12.35;74.16;100244.66;5083755;57;1138657;-76
2021/05/23 06:58:27;;;;;;;3.20;1.33;;;;;;;12.52;73.47;100236.02;5083956;57;1138550;-74
2021/05/23 07:03:33;;;;;;;4.57;1.37;;;;;;;12.64;72.79;100245.03;5084125;57;1138878;-74
2021/05/23 07:08:41;;;;;;;2.30;1.20;;;;;;;12.78;72.70;100248.25;5083649;57;1138449;-76
2021/05/23 07:13:47;;;;;;;1.80;1.03;;;;;;;12.95;72.26;100248.88;5083737;57;1139098;-73
2021/05/23 07:18:53;;;;;;;1.17;1.07;;;;;;;13.10;70.58;100259.41;5083650;57;1138534;-76
2021/05/23 07:23:59;;;;;;;1.90;1.10;;;;;;;13.16;70.65;100264.17;5083870;57;1138938;-76
2021/05/23 07:29:06;;;;;;;2.37;0.93;;;;;;;13.27;68.15;100263.20;5083723;57;1139041;-75
2021/05/23 07:34:12;;;;;;;1.77;1.10;;;;;;;13.19;67.88;100267.03;5084021;57;1139119;-77
2021/05/23 07:39:19;;;;;;;2.10;1.07;;;;;;;13.23;68.82;100263.13;5083800;57;1139153;-79
2021/05/23 07:44:25;;;;;;;2.85;1.00;;;;;;;13.23;65.86;100267.11;5087852;57;1148256;-77
2021/05/23 07:49:31;;;;;;;0.80;0.80;;;;;;;13.16;66.82;100273.47;5067363;57;1138942;-77
2021/05/23 07:54:41;;;;;;;1.55;0.85;;;;;;;13.29;66.98;100283.81;5066242;57;1138655;-76
2021/05/23 07:59:47;;;;;;;3.40;1.00;;;;;;;13.44;67.10;100281.06;5066187;57;1138660;-71
2021/05/23 08:04:53;;;;;;;0.80;0.80;;;;;;;13.47;65.18;100286.06;5066673;57;1138932;-74
2021/05/23 08:09:59;;;;;;;2.50;1.07;;;;;;;13.42;65.04;100286.17;5066631;57;1138967;-75
2021/05/23 08:15:07;;;;;;;2.47;1.20;;;;;;;13.35;65.77;100293.36;5066365;57;1138940;-72
2021/05/23 08:20:15;;;;;;;2.87;1.00;;;;;;;13.39;66.58;100293.92;5066479;57;1138915;-71
2021/05/23 08:25:21;;;;;;;1.20;1.10;;;;;;;13.54;67.31;100297.81;5066521;57;1139134;-73
2021/05/23 08:30:28;;;;;;;2.47;0.70;;;;;;;13.61;67.10;100308.69;5066663;57;1139308;-72
2021/05/23 08:35:34;;;;;;;4.03;0.78;;;;;;;13.57;66.55;100311.31;5066802;57;1139175;-72
2021/05/23 08:40:39;;;;;;;1.25;1.02;;;;;;;13.64;66.61;100315.89;5066587;57;1139088;-73
2021/05/23 08:45:45;;;;;;;1.60;0.90;;;;;;;13.62;65.38;100315.19;5066560;57;1138854;-73
2021/05/23 08:50:51;;;;;;;3.55;1.40;;;;;;;13.53;64.88;100320.53;5066469;57;1138995;-73
2021/05/23 08:55:57;;;;;;;1.93;0.87;;;;;;;13.46;65.86;100316.27;5066346;57;1139037;-71
2021/05/23 09:01:03;;;;;;;3.75;1.00;;;;;;;13.53;66.99;100315.22;5065288;57;1138981;-75
2021/05/23 09:06:09;;;;;;;1.10;1.00;;;;;;;13.67;66.29;100320.92;5133550;56;1138911;-72
2021/05/23 09:11:14;;;;;;;1.43;1.10;;;;;;;13.73;64.94;100319.52;5143203;56;1139072;-75
2021/05/23 09:16:21;;;;;;;7.73;3.20;;;;;;;13.80;64.77;100324.59;5098557;56;1139005;-74
2021/05/23 09:21:34;;;;;;;1.07;0.80;;;;;;;13.84;64.25;100327.31;5086245;56;1139087;-73
2021/05/23 09:26:46;;;;;;;1.20;1.00;;;;;;;13.92;64.33;100330.08;5053560;57;1139162;-71
2021/05/23 09:32:04;;;;;;;1.37;1.20;;;;;;;14.00;64.61;100330.69;5066247;57;1138564;-72
2021/05/23 09:37:02;;;;;;;1.40;0.80;;;;;;;13.98;63.95;100328.67;5064198;57;1138537;-72
2021/05/23 09:42:13;;;;;;;3.47;1.07;;;;;;;14.06;64.04;100322.95;5084332;56;1138617;-74
2021/05/23 09:47:19;;;;;;;2.37;1.00;;;;;;;14.12;64.41;100324.69;5081521;56;1138937;-70
2021/05/23 09:52:39;;;;;;;5.53;1.33;;;;;;;14.31;64.55;100334.77;5079696;56;1138585;-74
2021/05/23 09:57:45;;;;;;;15.60;8.18;;;;;;;14.50;63.95;100329.03;5079196;57;1138554;-76
2021/05/23 10:02:56;;;;;;;4.50;3.90;;;;;;;14.78;62.51;100329.34;5078018;57;1140561;-76
2021/05/23 10:08:14;;;;;;;0.70;0.60;;;;;;;15.02;61.27;100327.41;5075327;56;1138711;-71
2021/05/23 10:13:22;;;;;;;1.80;0.80;;;;;;;14.98;59.14;100329.53;5081018;57;1138419;-74
2021/05/23 10:18:31;;;;;;;1.55;1.20;;;;;;;15.02;59.58;100326.07;5059603;57;1139446;-76
2021/05/23 10:23:40;;;;;;;0.70;0.65;;;;;;;15.29;58.50;100321.98;5058196;57;1139307;-74
2021/05/23 10:28:47;;;;;;;4.23;1.30;;;;;;;15.26;59.29;100324.14;5078365;57;1138937;-71
2021/05/23 10:33:55;;;;;;;0.90;0.90;;;;;;;15.18;59.80;100338.21;5037123;57;1138608;-73
2021/05/23 10:39:04;;;;;;;1.17;0.90;;;;;;;15.36;58.44;100332.37;5074459;56;1138601;-72
2021/05/23 10:44:13;;;;;;;5.03;1.10;;;;;;;15.40;57.49;100334.24;5075057;57;1138646;-70
2021/05/23 10:49:20;;;;;;;0.97;0.90;;;;;;;15.40;57.52;100337.75;5078777;57;1138621;-75
2021/05/23 10:54:25;;;;;;;3.03;0.97;;;;;;;15.42;57.41;100349.09;4997914;57;1138717;-75
2021/05/23 10:59:32;;;;;;;0.93;0.70;;;;;;;15.57;57.45;100359.23;5098857;56;1138625;-72
2021/05/23 11:04:40;;;;;;;0.60;0.60;;;;;;;15.80;57.55;100356.39;5094725;56;1141789;-73
2021/05/23 11:09:45;;;;;;;0.73;0.73;;;;;;;15.76;56.86;100362.52;5101273;56;1138893;-70
2021/05/23 11:14:58;;;;;;;0.97;0.70;;;;;;;15.76;57.68;100366.52;5091509;56;1138720;-72
2021/05/23 11:20:17;;;;;;;0.40;0.40;;;;;;;15.82;58.11;100355.73;5098922;56;1138795;-75
2021/05/23 11:25:23;;;;;;;1.43;0.53;;;;;;;15.92;56.85;100349.80;5081059;56;1138647;-72
2021/05/23 11:30:34;;;;;;;3.05;0.68;;;;;;;16.00;59.20;100343.69;5198748;56;1138867;-74
2021/05/23 11:35:43;;;;;;;2.60;0.68;;;;;;;16.18;57.02;100346.63;5167578;56;1138789;-72
2021/05/23 11:40:49;;;;;;;2.63;0.70;;;;;;;16.45;56.58;100348.23;5181840;56;1139184;-71
2021/05/23 11:45:58;;;;;;;2.77;1.00;;;;;;;16.38;53.81;100343.69;5181803;56;1138851;-74
2021/05/23 11:51:13;;;;;;;5.57;0.50;;;;;;;16.33;56.56;100353.53;5155653;56;1139134;-73
2021/05/23 11:56:26;;;;;;;1.97;0.80;;;;;;;16.47;53.18;100348.92;5103209;56;1139230;-73
2021/05/23 12:01:34;;;;;;;0.50;0.50;;;;;;;16.47;53.51;100360.93;5091735;56;1138911;-73
2021/05/23 12:06:50;;;;;;;0.50;0.50;;;;;;;16.07;54.56;100392.23;5095549;56;1139033;-74
2021/05/23 12:12:00;;;;;;;0.40;0.37;;;;;;;15.63;56.94;100391.42;5098050;56;1139163;-73
2021/05/23 12:17:19;;;;;;;0.50;0.40;;;;;;;15.56;57.67;100378.88;5093934;56;1139473;-73
2021/05/23 12:22:39;;;;;;;0.40;0.40;;;;;;;15.68;56.54;100362.97;5166298;56;1139001;-75
2021/05/23 12:27:52;;;;;;;1.02;0.47;;;;;;;15.71;57.63;100378.17;5165960;56;1138979;-73
2021/05/23 12:33:08;;;;;;;6.60;0.40;;;;;;;15.79;56.18;100378.71;5165822;56;1138635;-78
2021/05/23 12:38:16;;;;;;;0.70;0.70;;;;;;;16.18;56.74;100372.47;5165708;56;1138658;-77
2021/05/23 12:43:28;;;;;;;0.93;0.77;;;;;;;16.65;52.50;100370.71;5165930;56;1138423;-77
2021/05/23 12:48:40;;;;;;;1.83;0.97;;;;;;;17.03;51.46;100367.96;5165845;56;1138935;-78
2021/05/23 12:53:58;;;;;;;0.75;0.50;;;;;;;17.20;52.22;100376.34;5166013;56;1138547;-78
2021/05/23 12:59:20;;;;;;;0.40;0.40;;;;;;;17.18;51.82;100381.02;5149848;56;1138396;-75
2021/05/23 13:04:25;;;;;;;1.33;0.50;;;;;;;16.99;52.94;100389.31;5147920;56;1138380;-78
2021/05/23 13:09:38;;;;;;;1.47;0.70;;;;;;;16.83;53.21;100392.28;5102310;56;1138694;-77
2021/05/23 13:14:59;;;;;;;2.13;0.40;;;;;;;16.62;53.78;100392.36;5088531;57;1138579;-76
2021/05/23 13:20:06;;;;;;;0.47;0.33;;;;;;;16.66;53.85;100383.03;5088376;57;1139305;-78
2021/05/23 13:25:13;;;;;;;1.50;0.40;;;;;;;17.06;53.81;100376.99;5088482;57;1139164;-76
2021/05/23 13:30:21;;;;;;;0.73;0.57;;;;;;;17.30;51.38;100380.19;5088434;57;1139160;-77
2021/05/23 13:35:27;;;;;;;0.83;0.50;;;;;;;17.36;52.74;100390.23;5088612;57;1138717;-80
2021/05/23 13:40:33;;;;;;;0.70;0.40;;;;;;;17.36;53.10;100389.73;5089230;57;1139316;-84
2021/05/23 13:45:39;;;;;;;1.67;0.30;;;;;;;17.22;50.90;100390.38;5089257;57;1138922;-79
2021/05/23 13:50:44;;;;;;;1.90;0.30;;;;;;;17.21;47.26;100407.42;5088067;57;1138933;-76
2021/05/23 13:55:50;;;;;;;0.68;0.20;;;;;;;16.97;47.54;100409.52;5049275;57;1138906;-81
2021/05/23 14:00:56;;;;;;;1.10;0.80;;;;;;;16.81;48.29;100407.63;5158232;56;1138939;-78
2021/05/23 14:06:02;;;;;;;0.43;0.30;;;;;;;16.61;49.77;100425.39;5164976;56;1139208;-83
2021/05/23 14:11:10;;;;;;;1.90;0.70;;;;;;;16.44;49.54;100426.65;5165847;56;1138985;-78
2021/05/23 14:16:16;;;;;;;1.90;0.60;;;;;;;16.36;50.64;100426.59;5165262;56;1139208;-79
2021/05/23 14:21:23;;;;;;;1.43;0.53;;;;;;;16.44;52.02;100427.98;5165361;56;1139149;-81
2021/05/23 14:26:29;;;;;;;1.93;0.57;;;;;;;16.72;53.59;100430.48;5165087;56;1138942;-78
2021/05/23 14:31:35;;;;;;;2.93;1.00;;;;;;;17.08;53.01;100415.08;5165115;56;1139108;-81
2021/05/23 14:36:43;;;;;;;0.98;0.55;;;;;;;17.28;52.63;100424.45;5165296;56;1138912;-81
2021/05/23 14:41:49;;;;;;;1.02;0.50;;;;;;;17.33;51.79;100431.48;5165233;56;1139118;-77
2021/05/23 14:46:55;;;;;;;1.97;0.77;;;;;;;17.09;52.58;100428.78;5165049;56;1138935;-79
2021/05/23 14:52:02;;;;;;;0.57;0.30;;;;;;;17.15;53.02;100426.77;5165455;56;1138907;-75
2021/05/23 14:57:08;;;;;;;0.97;0.60;;;;;;;17.20;50.80;100423.95;5165244;56;1139016;-78
2021/05/23 15:02:15;;;;;;;1.25;0.80;;;;;;;17.38;50.24;100428.33;5150475;56;1139163;-82
2021/05/23 15:07:21;;;;;;;0.55;0.40;;;;;;;17.40;49.72;100435.69;5147088;56;1139122;-80
2021/05/23 15:12:27;;;;;;;1.33;0.50;;;;;;;17.49;49.87;100445.38;5147488;56;1138823;-81
2021/05/23 15:17:33;;;;;;;1.43;0.50;;;;;;;17.43;49.51;100445.53;5147586;56;1139182;-79
2021/05/23 15:22:39;;;;;;;1.67;0.67;;;;;;;17.40;50.13;100449.89;5147562;56;1139159;-80
2021/05/23 15:33:09;;;;;;;3.30;0.60;;;;;;;17.38;48.77;100467.09;5147212;56;1138966;-79
2021/05/23 15:38:16;;;;;;;1.13;0.50;;;;;;;17.25;49.10;100475.59;5147098;56;1138881;-79
2021/05/23 15:43:21;;;;;;;0.63;0.43;;;;;;;17.22;49.07;100475.41;5146892;56;1139026;-77
2021/05/23 15:48:28;;;;;;;8.70;0.43;;;;;;;17.13;50.72;100480.87;5147182;56;1138915;-77
2021/05/23 15:53:34;;;;;;;0.40;0.30;;;;;;;17.12;51.65;100474.70;5137791;56;1139117;-79
2021/05/23 15:58:40;;;;;;;0.20;0.20;;;;;;;17.16;50.42;100483.23;5138026;56;1138923;-78
2021/05/23 16:03:48;;;;;;;0.20;0.10;;;;;;;17.12;50.16;100488.06;5161542;56;1138994;-79
2021/05/23 16:08:56;;;;;;;0.27;0.27;;;;;;;17.04;49.07;100506.75;5165061;56;1138888;-77
2021/05/23 16:14:02;;;;;;;0.30;0.30;;;;;;;16.90;49.53;100482.47;5165509;56;1139005;-76
2021/05/23 16:19:09;;;;;;;0.70;0.30;;;;;;;16.99;50.86;100498.37;5165387;56;1138420;-82
2021/05/23 16:24:14;;;;;;;0.73;0.50;;;;;;;16.96;49.85;100509.37;5165321;56;1138532;-83
2021/05/23 16:29:21;;;;;;;1.03;0.63;;;;;;;16.63;50.96;100522.24;5165071;56;1138488;-77
2021/05/23 16:34:26;;;;;;;2.17;1.17;;;;;;;16.27;51.60;100546.31;5164535;56;1138969;-76
2021/05/23 16:39:33;;;;;;;2.70;2.40;;;;;;;15.96;52.02;100563.72;5164748;56;1138357;-76
2021/05/23 16:44:39;;;;;;;2.25;2.00;;;;;;;15.64;52.22;100582.39;5164742;56;1138642;-76
2021/05/23 16:49:45;;;;;;;10.38;7.12;;;;;;;15.37;53.30;100601.05;5164673;56;1138493;-77
2021/05/23 16:54:51;;;;;;;24.90;13.62;;;;;;;14.97;53.92;100602.17;5164348;56;1140537;-77
2021/05/23 16:59:57;;;;;;;10.50;9.50;;;;;;;14.50;55.89;100611.13;5164163;56;1142979;-75
2021/05/23 17:05:05;;;;;;;3.43;1.70;;;;;;;14.09;57.34;100611.23;5143175;56;1141218;-77
2021/05/23 17:10:11;;;;;;;2.37;2.27;;;;;;;13.75;60.38;100589.17;5144337;56;1138880;-75
2021/05/23 17:15:20;;;;;;;0.80;0.70;;;;;;;13.61;61.88;100593.03;5165109;56;1138688;-78
2021/05/23 17:20:27;;;;;;;0.83;0.83;;;;;;;13.59;62.31;100582.57;5164588;56;1138690;-77
2021/05/23 17:25:35;;;;;;;1.30;1.20;;;;;;;13.78;63.10;100575.58;5164870;56;1138650;-76
2021/05/23 17:30:41;;;;;;;12.03;8.70;;;;;;;14.01;62.47;100577.86;5132531;56;1138625;-78
2021/05/23 17:35:46;;;;;;;82.50;50.07;;;;;;;14.26;62.67;100584.91;5079497;57;1140676;-76
2021/05/23 17:40:52;;;;;;;8.33;5.57;;;;;;;14.42;62.35;100592.70;5079541;57;1142733;-80
2021/05/23 17:45:58;;;;;;;3.20;2.60;;;;;;;14.56;62.03;100595.41;5079777;57;1138786;-80
2021/05/23 17:51:04;;;;;;;26.53;12.70;;;;;;;14.75;61.76;100598.05;5079269;57;1138720;-79
2021/05/23 17:56:11;;;;;;;9.83;7.97;;;;;;;14.98;61.57;100605.18;5105607;56;1142942;-76
2021/05/23 18:01:17;;;;;;;4.43;2.53;;;;;;;15.05;61.20;100598.30;5168103;56;1139137;-76
2021/05/23 18:06:23;;;;;;;5.10;4.10;;;;;;;15.11;60.66;100610.21;5177483;56;1138966;-77
2021/05/23 18:11:29;;;;;;;3.57;2.03;;;;;;;14.95;60.15;100621.47;5182982;56;1139298;-78
2021/05/23 18:16:35;;;;;;;8.87;3.43;;;;;;;14.91;60.57;100621.90;5179402;56;1259820;-77
2021/05/23 18:21:41;;;;;;;9.53;4.40;;;;;;;14.81;60.31;100631.25;5180110;56;1138840;-79
2021/05/23 18:26:46;;;;;;;5.62;3.30;;;;;;;14.67;60.39;100643.16;5181480;56;1139018;-76
2021/05/23 18:31:53;;;;;;;6.00;3.95;;;;;;;14.56;60.65;100653.13;5179976;56;1138876;-75
2021/05/23 18:36:58;;;;;;;5.63;4.13;;;;;;;14.41;60.75;100660.70;5179484;56;1138627;-76
2021/05/23 18:42:06;;;;;;;7.90;4.10;;;;;;;14.33;60.99;100669.36;5179772;56;1138340;-76
2021/05/23 18:47:15;;;;;;;10.73;4.17;;;;;;;14.29;61.13;100664.45;5179841;56;1138528;-79
2021/05/23 18:52:21;;;;;;;14.17;4.73;;;;;;;14.25;61.28;100674.52;5179488;56;1140504;-77
2021/05/23 18:57:28;;;;;;;12.47;4.43;;;;;;;14.18;61.25;100680.06;5179779;56;1141019;-79
2021/05/23 19:02:34;;;;;;;6.25;3.87;;;;;;;14.11;61.38;100682.91;5180153;56;1141224;-79
2021/05/23 19:07:41;;;;;;;8.13;5.93;;;;;;;14.01;61.66;100687.38;5172381;56;1138924;-77
2021/05/23 19:12:49;;;;;;;6.50;4.85;;;;;;;13.88;61.65;100696.94;5165597;56;1139142;-75
2021/05/23 19:17:56;;;;;;;2.73;2.50;;;;;;;13.84;61.94;100714.13;5121075;56;1139180;-79
2021/05/23 19:23:02;;;;;;;5.40;2.50;;;;;;;13.74;62.07;100726.55;5165624;56;1139040;-78
2021/05/23 19:28:08;;;;;;;2.20;2.00;;;;;;;13.63;62.35;100734.11;5166741;56;1138899;-78
2021/05/23 19:33:16;;;;;;;6.97;2.60;;;;;;;13.55;62.73;100729.13;5168270;56;1138879;-76
2021/05/23 19:38:22;;;;;;;2.43;1.97;;;;;;;13.51;62.72;100735.67;5166145;56;1138688;-75
2021/05/23 19:43:27;;;;;;;12.63;3.90;;;;;;;13.44;62.95;100745.16;5125700;56;1138557;-76
2021/05/23 19:48:34;;;;;;;9.13;4.30;;;;;;;13.40;63.12;100747.23;5082902;57;1141193;-78
2021/05/23 19:53:40;;;;;;;9.73;7.77;;;;;;;13.34;63.22;100757.04;5086044;56;1140940;-80
2021/05/23 19:58:46;;;;;;;34.85;23.32;;;;;;;13.35;63.40;100761.38;5100750;56;1138891;-76
2021/05/23 20:03:53;;;;;;;44.30;27.58;;;;;;;13.33;63.27;100761.99;5094144;56;1143027;-75
2021/05/23 20:08:58;;;;;;;27.53;17.33;;;;;;;13.37;63.33;100770.06;5092587;56;1143089;-73
2021/05/23 20:14:04;;;;;;;16.17;7.97;;;;;;;13.33;63.35;100773.46;5096352;56;1143261;-76
2021/05/23 20:19:10;;;;;;;5.10;2.53;;;;;;;13.28;63.58;100780.16;5098237;56;1141721;-76
2021/05/23 20:24:16;;;;;;;5.23;1.80;;;;;;;13.10;63.85;100786.98;5095566;56;1138952;-77
2021/05/23 20:29:23;;;;;;;2.33;1.40;;;;;;;12.95;64.41;100795.26;5092427;56;1138993;-76
2021/05/23 20:34:29;;;;;;;2.53;1.67;;;;;;;12.82;64.96;100803.88;5096968;56;1138906;-74
2021/05/23 20:39:35;;;;;;;4.53;3.00;;;;;;;12.80;65.14;100810.28;5091921;56;1139022;-77
2021/05/23 20:44:42;;;;;;;9.33;5.10;;;;;;;12.79;65.28;100812.58;5092596;56;1139044;-77
2021/05/23 20:49:49;;;;;;;65.25;16.62;;;;;;;12.82;65.59;100809.67;5093735;56;1139197;-79
2021/05/23 20:54:55;;;;;;;95.40;27.48;;;;;;;12.93;65.84;100815.78;5089048;56;1143047;-77
2021/05/23 21:00:02;;;;;;;12.03;5.37;;;;;;;13.07;65.81;100807.15;5098760;56;1142767;-76
2021/05/23 21:05:15;;;;;;;7.30;3.63;;;;;;;13.15;65.68;100808.21;5094134;56;1140778;-79
2021/05/23 21:10:19;;;;;;;14.33;7.83;;;;;;;13.21;65.57;100809.52;5094316;56;1139158;-79
2021/05/23 21:15:25;;;;;;;16.00;9.65;;;;;;;13.25;65.40;100805.16;5085342;56;1140676;-75
2021/05/23 21:20:31;;;;;;;8.33;6.17;;;;;;;13.30;65.38;100813.56;5090025;56;1140795;-81
2021/05/23 21:25:36;;;;;;;14.07;5.97;;;;;;;13.35;65.55;100826.47;5084527;56;1138432;-76
2021/05/23 21:30:42;;;;;;;15.07;6.47;;;;;;;13.26;65.23;100839.20;5091066;56;1140573;-79
2021/05/23 21:35:48;;;;;;;19.80;6.47;;;;;;;12.99;65.26;100844.45;5090078;56;1140478;-82
2021/05/23 21:40:55;;;;;;;12.78;5.12;;;;;;;12.78;65.71;100855.53;5088539;56;1140999;-78
2021/05/23 21:46:01;;;;;;;12.50;5.87;;;;;;;12.63;66.08;100859.42;5090386;56;1140530;-74
2021/05/23 21:51:08;;;;;;;14.43;4.00;;;;;;;12.53;66.47;100863.28;5088749;56;1140666;-77
2021/05/23 21:56:14;;;;;;;9.57;5.10;;;;;;;12.46;66.61;100863.91;5088900;56;1140562;-77
2021/05/23 22:01:19;;;;;;;11.83;5.23;;;;;;;12.43;66.91;100869.45;5089628;56;1139271;-81
2021/05/23 22:06:25;;;;;;;7.00;3.57;;;;;;;12.32;67.17;100878.27;5091388;56;1140915;-82
2021/05/23 22:11:31;;;;;;;5.60;2.83;;;;;;;12.27;67.44;100886.58;5086219;56;1138572;-78
2021/05/23 22:16:37;;;;;;;4.27;3.27;;;;;;;12.28;67.72;100887.43;5093955;57;1138550;-78
2021/05/23 22:21:43;;;;;;;13.67;4.47;;;;;;;12.28;67.81;100901.53;5074878;57;1256721;-78
2021/05/23 22:26:49;;;;;;;6.55;3.45;;;;;;;12.24;67.73;100911.17;5096174;57;1141191;-79
2021/05/23 22:31:55;;;;;;;4.47;2.77;;;;;;;12.12;67.84;100909.48;5096621;57;1139019;-79
2021/05/23 22:37:01;;;;;;;6.20;2.43;;;;;;;11.90;68.37;100913.81;5096234;57;1139127;-79
2021/05/23 22:42:07;;;;;;;3.50;2.30;;;;;;;11.66;69.54;100914.30;5096248;57;1139211;-78
2021/05/23 22:47:14;;;;;;;4.37;3.17;;;;;;;11.53;70.11;100920.16;5095999;57;1139121;-75
2021/05/23 22:52:20;;;;;;;3.47;2.33;;;;;;;11.47;70.52;100928.56;5096210;57;1139075;-81
2021/05/23 22:57:26;;;;;;;2.90;2.43;;;;;;;11.44;71.26;100930.14;5095985;57;1138962;-78
2021/05/23 23:02:32;;;;;;;5.53;3.00;;;;;;;11.41;70.77;100930.36;5096364;57;1139008;-76
2021/05/23 23:07:38;;;;;;;4.27;3.40;;;;;;;11.40;71.10;100939.27;5096070;56;1139100;-80
2021/05/23 23:12:45;;;;;;;4.75;2.60;;;;;;;11.43;71.12;100961.55;5094170;57;1138859;-79
2021/05/23 23:17:50;;;;;;;3.47;2.90;;;;;;;11.30;71.69;100967.39;5040670;57;1139068;-81
2021/05/23 23:22:56;;;;;;;1.65;1.55;;;;;;;11.27;71.68;100975.08;5084099;57;1139133;-77